createdAt,value
2018-11-14T00:00:00.445Z,8.20
2018-11-14T00:02:28.620Z,8.30
2018-11-14T00:04:56.833Z,8.30
2018-11-14T00:07:25.496Z,8.30
2018-11-14T00:09:53.693Z,8.30
2018-11-14T00:12:21.864Z,8.30
2018-11-14T00:14:50.090Z,8.30
2018-11-14T00:17:18.260Z,8.30
2018-11-14T00:19:46.468Z,8.40
2018-11-14T00:22:14.643Z,8.40
2018-11-14T00:24:42.888Z,8.40
2018-11-14T00:27:11.012Z,8.40
2018-11-14T00:29:39.242Z,8.40
2018-11-14T00:32:07.387Z,8.40
2018-11-14T00:34:35.574Z,8.40
2018-11-14T00:37:03.749Z,8.40
2018-11-14T00:39:31.970Z,8.40
2018-11-14T00:42:00.140Z,8.40
2018-11-14T00:44:28.311Z,8.40
2018-11-14T00:46:56.497Z,8.40
2018-11-14T00:49:24.672Z,8.40
2018-11-14T00:51:52.865Z,8.30
2018-11-14T00:54:21.028Z,8.30
2018-11-14T00:56:49.253Z,8.30
2018-11-14T00:59:17.426Z,8.30
2018-11-14T01:01:46.035Z,8.20
2018-11-14T01:04:14.312Z,8.20
2018-11-14T01:06:42.531Z,8.20
2018-11-14T01:09:12.183Z,8.10
2018-11-14T01:11:40.357Z,8.10
2018-11-14T01:14:09.380Z,8.10
2018-11-14T01:16:37.628Z,8.00
2018-11-14T01:19:06.428Z,8.00
2018-11-14T01:21:34.646Z,8.00
2018-11-14T01:24:02.806Z,8.00
2018-11-14T01:26:30.994Z,7.90
2018-11-14T01:28:59.295Z,7.90
2018-11-14T01:31:27.504Z,7.90
2018-11-14T01:33:55.711Z,7.90
2018-11-14T01:36:23.897Z,7.90
2018-11-14T01:38:52.064Z,7.80
2018-11-14T01:41:20.269Z,7.80
2018-11-14T01:43:48.445Z,7.80
2018-11-14T01:46:16.688Z,7.70
2018-11-14T01:48:45.124Z,7.70
2018-11-14T01:51:13.325Z,7.70
2018-11-14T01:53:41.495Z,7.60
2018-11-14T01:56:09.688Z,7.60
2018-11-14T01:58:37.857Z,7.60
2018-11-14T02:01:06.115Z,7.60
2018-11-14T02:03:34.275Z,7.60
2018-11-14T02:06:02.488Z,7.60
2018-11-14T02:08:30.660Z,7.60
2018-11-14T02:10:58.847Z,7.60
2018-11-14T02:13:27.039Z,7.60
2018-11-14T02:15:55.278Z,7.60
2018-11-14T02:18:23.449Z,7.60
2018-11-14T02:20:51.657Z,7.60
2018-11-14T02:23:19.820Z,7.60
2018-11-14T02:25:48.025Z,7.60
2018-11-14T02:28:16.196Z,7.60
2018-11-14T02:30:44.394Z,7.60
2018-11-14T02:33:12.849Z,7.60
2018-11-14T02:35:41.282Z,7.60
2018-11-14T02:38:09.451Z,7.60
2018-11-14T02:40:37.720Z,7.60
2018-11-14T02:46:37.358Z,7.60
2018-11-14T02:49:05.656Z,7.60
2018-11-14T02:51:33.896Z,7.60
2018-11-14T02:54:02.078Z,7.50
2018-11-14T02:56:30.295Z,7.60
2018-11-14T02:58:58.510Z,7.60
2018-11-14T03:01:26.714Z,7.50
2018-11-14T03:03:54.896Z,7.50
2018-11-14T03:06:23.090Z,7.50
2018-11-14T03:08:51.263Z,7.50
2018-11-14T03:11:19.468Z,7.40
2018-11-14T03:13:47.657Z,7.40
2018-11-14T03:16:15.835Z,7.40
2018-11-14T03:18:44.017Z,7.30
2018-11-14T03:21:12.200Z,7.30
2018-11-14T03:23:40.380Z,7.30
2018-11-14T03:26:08.576Z,7.30
2018-11-14T03:28:36.745Z,7.20
2018-11-14T03:32:07.977Z,7.20
2018-11-14T03:34:36.211Z,7.10
2018-11-14T03:37:04.644Z,7.10
2018-11-14T03:39:32.828Z,7.00
2018-11-14T03:42:01.053Z,7.00
2018-11-14T03:44:29.296Z,7.00
2018-11-14T03:46:57.504Z,6.90
2018-11-14T03:49:25.673Z,6.90
2018-11-14T03:51:53.855Z,6.80
2018-11-14T03:54:22.092Z,6.80
2018-11-14T03:56:50.276Z,6.70
2018-11-14T03:59:18.452Z,6.70
2018-11-14T04:01:46.640Z,6.60
2018-11-14T04:04:14.813Z,6.50
2018-11-14T04:06:43.094Z,6.50
2018-11-14T04:09:12.658Z,6.40
2018-11-14T04:11:41.130Z,6.40
2018-11-14T04:14:09.659Z,6.40
2018-11-14T04:16:37.861Z,6.40
2018-11-14T04:19:06.644Z,6.40
2018-11-14T04:21:34.838Z,6.40
2018-11-14T04:24:03.009Z,6.40
2018-11-14T04:26:31.215Z,6.50
2018-11-14T04:28:59.405Z,6.40
2018-11-14T04:31:27.628Z,6.50
2018-11-14T04:33:56.383Z,6.50
2018-11-14T04:36:24.572Z,6.50
2018-11-14T04:38:53.001Z,6.50
2018-11-14T04:41:21.300Z,6.50
2018-11-14T04:43:49.473Z,6.50
2018-11-14T04:46:17.668Z,6.50
2018-11-14T04:48:45.857Z,6.50
2018-11-14T04:51:14.046Z,6.50
2018-11-14T04:53:42.236Z,6.50
2018-11-14T04:59:03.401Z,6.60
2018-11-14T05:01:31.587Z,6.60
2018-11-14T05:03:59.771Z,6.60
2018-11-14T05:06:27.953Z,6.60
2018-11-14T05:08:56.124Z,6.60
2018-11-14T05:11:24.304Z,6.50
2018-11-14T05:13:52.488Z,6.50
2018-11-14T05:16:20.950Z,6.50
2018-11-14T05:18:49.128Z,6.50
2018-11-14T05:22:20.788Z,6.40
2018-11-14T05:24:48.969Z,6.40
2018-11-14T05:27:17.113Z,6.40
2018-11-14T05:29:45.285Z,6.40
2018-11-14T05:32:13.487Z,6.40
2018-11-14T05:34:41.655Z,6.30
2018-11-14T05:37:09.836Z,6.30
2018-11-14T05:39:38.652Z,6.30
2018-11-14T05:42:06.779Z,6.30
2018-11-14T05:44:34.940Z,6.30
2018-11-14T05:47:03.120Z,6.30
2018-11-14T05:49:31.280Z,6.30
2018-11-14T05:51:59.713Z,6.30
2018-11-14T05:54:27.886Z,6.30
2018-11-14T05:56:56.084Z,6.30
2018-11-14T05:59:24.265Z,6.40
2018-11-14T06:01:52.432Z,6.40
2018-11-14T06:04:20.622Z,6.40
2018-11-14T06:06:48.793Z,6.40
2018-11-14T06:09:16.972Z,6.40
2018-11-14T06:11:45.136Z,6.40
2018-11-14T06:14:13.321Z,6.50
2018-11-14T06:16:41.476Z,6.50
2018-11-14T06:19:09.664Z,6.50
2018-11-14T06:21:37.821Z,6.50
2018-11-14T06:24:06.021Z,6.50
2018-11-14T06:26:34.624Z,6.50
2018-11-14T06:29:02.793Z,6.50
2018-11-14T06:31:30.996Z,6.50
2018-11-14T06:33:59.398Z,6.40
2018-11-14T06:36:27.626Z,6.40
2018-11-14T06:38:55.850Z,6.40
2018-11-14T06:41:24.024Z,6.30
2018-11-14T06:43:52.216Z,6.30
2018-11-14T06:46:20.373Z,6.30
2018-11-14T06:48:48.630Z,6.30
2018-11-14T06:51:16.806Z,6.30
2018-11-14T06:53:44.993Z,6.20
2018-11-14T06:56:13.161Z,6.20
2018-11-14T06:58:41.400Z,6.20
2018-11-14T07:01:09.573Z,6.20
2018-11-14T07:03:37.767Z,6.20
2018-11-14T07:06:06.118Z,6.20
2018-11-14T07:08:34.117Z,6.20
2018-11-14T07:11:02.628Z,6.20
2018-11-14T07:13:30.780Z,6.20
2018-11-14T07:15:58.941Z,6.30
2018-11-14T07:18:27.125Z,6.30
2018-11-14T07:20:55.284Z,6.30
2018-11-14T07:23:25.269Z,6.30
2018-11-14T07:25:53.436Z,6.30
2018-11-14T07:28:21.619Z,6.30
2018-11-14T07:30:49.772Z,6.30
2018-11-14T07:33:17.973Z,6.30
2018-11-14T07:35:46.157Z,6.30
2018-11-14T07:38:46.958Z,6.30
2018-11-14T07:41:21.062Z,6.30
2018-11-14T07:43:49.346Z,6.20
2018-11-14T07:46:17.530Z,6.20
2018-11-14T07:48:46.767Z,6.20
2018-11-14T07:51:14.913Z,6.20
2018-11-14T07:53:43.104Z,6.20
2018-11-14T07:56:11.302Z,6.10
2018-11-14T07:58:39.535Z,6.20
2018-11-14T08:01:07.844Z,6.20
2018-11-14T08:03:36.139Z,6.20
2018-11-14T08:06:04.373Z,6.20
2018-11-14T08:08:32.606Z,6.30
2018-11-14T08:11:00.712Z,6.30
2018-11-14T08:13:30.456Z,6.30
2018-11-14T08:15:59.569Z,6.40
2018-11-14T08:18:28.048Z,6.40
2018-11-14T08:20:56.709Z,6.50
2018-11-14T08:23:24.924Z,6.60
2018-11-14T08:25:53.085Z,6.60
2018-11-14T08:28:21.293Z,6.70
2018-11-14T08:30:49.454Z,6.70
2018-11-14T08:33:17.624Z,6.80
2018-11-14T08:35:45.773Z,6.80
2018-11-14T08:38:13.945Z,6.90
2018-11-14T08:40:42.092Z,7.00
2018-11-14T08:43:10.275Z,7.10
2018-11-14T08:45:38.628Z,7.20
2018-11-14T08:48:07.466Z,7.30
2018-11-14T08:50:35.632Z,7.50
2018-11-14T08:53:03.818Z,7.60
2018-11-14T08:55:32.000Z,7.70
2018-11-14T08:58:00.166Z,7.80
2018-11-14T09:00:28.849Z,7.90
2018-11-14T09:02:57.011Z,8.10
2018-11-14T09:05:25.189Z,8.20
2018-11-14T09:07:53.415Z,8.30
2018-11-14T09:10:22.666Z,8.40
2018-11-14T09:12:51.151Z,8.40
2018-11-14T09:15:20.449Z,8.50
2018-11-14T09:17:48.853Z,8.60
2018-11-14T09:20:19.453Z,8.70
2018-11-14T09:22:47.693Z,8.90
2018-11-14T09:25:17.737Z,9.10
2018-11-14T09:27:46.163Z,9.60
2018-11-14T09:30:17.230Z,10.20
2018-11-14T09:32:45.767Z,10.80
2018-11-14T09:35:15.406Z,11.50
2018-11-14T09:37:43.874Z,12.10
2018-11-14T09:40:13.498Z,12.60
2018-11-14T09:42:41.649Z,13.10
2018-11-14T09:45:12.033Z,13.60
2018-11-14T09:47:40.265Z,14.00
2018-11-14T09:50:10.263Z,14.20
2018-11-14T09:52:38.427Z,14.30
2018-11-14T09:55:07.841Z,14.30
2018-11-14T09:57:36.109Z,14.20
2018-11-14T10:00:05.491Z,14.00
2018-11-14T10:02:33.650Z,13.60
2018-11-14T10:05:01.857Z,13.10
2018-11-14T10:07:30.018Z,12.70
2018-11-14T10:09:58.213Z,12.50
2018-11-14T10:12:26.474Z,12.50
2018-11-14T10:14:54.743Z,12.60
2018-11-14T10:17:22.910Z,12.70
2018-11-14T10:19:51.120Z,12.80
2018-11-14T10:22:20.531Z,12.80
2018-11-14T10:24:48.722Z,12.90
2018-11-14T10:27:16.900Z,12.90
2018-11-14T10:29:45.093Z,12.90
2018-11-14T10:32:13.264Z,12.90
2018-11-14T10:34:41.458Z,12.80
2018-11-14T10:37:09.627Z,12.60
2018-11-14T10:39:37.817Z,12.50
2018-11-14T10:42:05.993Z,12.30
2018-11-14T10:44:34.173Z,12.20
2018-11-14T10:47:02.345Z,12.20
2018-11-14T10:49:30.520Z,12.10
2018-11-14T10:51:58.759Z,12.10
2018-11-14T10:54:26.908Z,12.00
2018-11-14T10:56:55.066Z,12.00
2018-11-14T10:59:23.246Z,12.00
2018-11-14T11:01:56.825Z,12.00
2018-11-14T11:04:30.185Z,12.00
2018-11-14T11:07:03.729Z,12.00
2018-11-14T11:09:37.413Z,12.10
2018-11-14T11:12:10.992Z,12.10
2018-11-14T11:14:44.448Z,12.20
2018-11-14T11:17:17.998Z,12.20
2018-11-14T11:19:46.192Z,12.30
2018-11-14T11:22:14.356Z,12.40
2018-11-14T11:24:42.545Z,12.50
2018-11-14T11:27:10.728Z,12.80
2018-11-14T11:29:38.918Z,13.20
2018-11-14T11:32:07.113Z,13.60
2018-11-14T11:34:35.261Z,14.00
2018-11-14T11:37:03.421Z,14.30
2018-11-14T11:39:31.633Z,14.70
2018-11-14T11:41:59.824Z,15.00
2018-11-14T11:44:28.038Z,15.20
2018-11-14T11:46:56.200Z,15.30
2018-11-14T11:49:24.475Z,15.30
2018-11-14T11:51:52.637Z,15.10
2018-11-14T11:54:20.824Z,14.90
2018-11-14T11:56:48.988Z,14.80
2018-11-14T11:59:17.193Z,14.70
2018-11-14T12:01:45.380Z,14.60
2018-11-14T12:04:13.565Z,14.80
2018-11-14T12:06:41.735Z,14.90
2018-11-14T12:09:11.147Z,15.00
2018-11-14T12:11:39.323Z,14.90
2018-11-14T12:14:07.844Z,14.80
2018-11-14T12:16:36.023Z,14.70
2018-11-14T12:19:04.526Z,14.70
2018-11-14T12:21:32.653Z,14.60
2018-11-14T12:24:00.848Z,14.50
2018-11-14T12:26:29.026Z,14.50
2018-11-14T12:28:57.233Z,14.40
2018-11-14T12:31:25.393Z,14.50
2018-11-14T12:33:53.578Z,14.50
2018-11-14T12:36:21.769Z,14.50
2018-11-14T12:38:50.028Z,14.50
2018-11-14T12:41:18.587Z,14.50
2018-11-14T12:43:46.801Z,14.50
2018-11-14T12:46:15.078Z,14.50
2018-11-14T12:48:43.382Z,14.40
2018-11-14T12:51:11.584Z,14.40
2018-11-14T12:53:39.760Z,14.50
2018-11-14T12:56:07.965Z,14.30
2018-11-14T12:58:36.151Z,14.50
2018-11-14T13:01:04.800Z,14.50
2018-11-14T13:03:32.985Z,14.50
2018-11-14T13:06:01.173Z,14.60
2018-11-14T13:08:31.983Z,14.60
2018-11-14T13:11:02.129Z,14.60
2018-11-14T13:13:38.124Z,14.60
2018-11-14T13:16:08.660Z,14.70
2018-11-14T13:18:41.249Z,14.60
2018-11-14T13:21:12.620Z,14.60
2018-11-14T13:23:47.018Z,14.60
2018-11-14T13:26:15.716Z,14.60
2018-11-14T13:28:46.673Z,14.60
2018-11-14T13:31:17.409Z,14.60
2018-11-14T13:33:48.303Z,14.60
2018-11-14T13:36:19.861Z,14.60
2018-11-14T13:38:51.019Z,14.50
2018-11-14T13:41:22.068Z,14.50
2018-11-14T13:43:52.584Z,14.40
2018-11-14T13:46:22.766Z,14.40
2018-11-14T13:48:52.753Z,14.30
2018-11-14T13:51:22.675Z,14.20
2018-11-14T13:53:52.360Z,14.10
2018-11-14T13:56:22.868Z,14.00
2018-11-14T13:58:51.442Z,14.00
2018-11-14T14:01:19.968Z,13.90
2018-11-14T14:03:48.383Z,13.80
2018-11-14T14:06:16.542Z,13.80
2018-11-14T14:08:44.725Z,13.70
2018-11-14T14:11:13.431Z,13.70
2018-11-14T14:13:46.945Z,13.60
2018-11-14T14:16:15.112Z,13.50
2018-11-14T14:18:43.301Z,13.50
2018-11-14T14:21:11.482Z,13.50
2018-11-14T14:23:39.665Z,13.40
2018-11-14T14:26:07.829Z,13.40
2018-11-14T14:28:36.020Z,13.40
2018-11-14T14:31:04.442Z,13.40
2018-11-14T14:33:32.557Z,13.30
2018-11-14T14:36:00.720Z,13.30
2018-11-14T14:38:28.900Z,13.20
2018-11-14T14:40:57.079Z,13.10
2018-11-14T14:43:25.300Z,13.00
2018-11-14T14:45:53.472Z,13.00
2018-11-14T14:48:21.698Z,12.90
2018-11-14T14:50:49.856Z,12.80
2018-11-14T14:53:18.048Z,12.80
2018-11-14T14:55:46.236Z,12.70
2018-11-14T14:58:14.439Z,12.60
2018-11-14T15:00:42.804Z,12.60
2018-11-14T15:03:11.072Z,12.50
2018-11-14T15:05:39.241Z,12.50
2018-11-14T15:08:07.441Z,12.40
2018-11-14T15:10:36.092Z,12.30
2018-11-14T15:13:04.286Z,12.30
2018-11-14T15:15:32.500Z,12.20
2018-11-14T15:18:01.649Z,12.10
2018-11-14T15:20:29.816Z,12.10
2018-11-14T15:22:58.004Z,12.00
2018-11-14T15:25:26.192Z,12.00
2018-11-14T15:27:54.373Z,11.90
2018-11-14T15:30:23.880Z,11.80
2018-11-14T15:32:52.068Z,11.70
2018-11-14T15:35:20.310Z,11.60
2018-11-14T15:37:48.438Z,11.50
2018-11-14T15:40:17.673Z,11.40
2018-11-14T15:42:46.027Z,11.30
2018-11-14T15:45:15.554Z,11.20
2018-11-14T15:47:43.764Z,11.10
2018-11-14T15:50:13.985Z,11.00
2018-11-14T15:52:43.206Z,10.90
2018-11-14T15:55:12.261Z,10.80
2018-11-14T15:57:40.501Z,10.70
2018-11-14T16:00:11.309Z,10.70
2018-11-14T16:02:39.802Z,10.60
2018-11-14T16:05:09.738Z,10.50
2018-11-14T16:07:38.155Z,10.40
2018-11-14T16:10:07.320Z,10.30
2018-11-14T16:12:36.110Z,10.20
2018-11-14T16:15:04.536Z,10.10
2018-11-14T16:17:32.701Z,10.00
2018-11-14T16:20:01.061Z,10.00
2018-11-14T16:22:29.246Z,9.90
2018-11-14T16:24:57.460Z,9.80
2018-11-14T16:27:25.596Z,9.70
2018-11-14T16:29:53.913Z,9.70
2018-11-14T16:32:22.072Z,9.60
2018-11-14T16:34:50.254Z,9.50
2018-11-14T16:37:18.441Z,9.50
2018-11-14T16:39:46.975Z,9.40
2018-11-14T16:42:15.168Z,9.30
2018-11-14T16:44:43.356Z,9.30
2018-11-14T16:47:11.565Z,9.20
2018-11-14T16:49:39.878Z,9.10
2018-11-14T16:52:08.345Z,9.00
2018-11-14T16:54:36.549Z,9.00
2018-11-14T16:57:04.706Z,8.90
2018-11-14T16:59:32.942Z,8.90
2018-11-14T17:02:01.093Z,8.90
2018-11-14T17:04:29.313Z,8.80
2018-11-14T17:06:57.493Z,8.80
2018-11-14T17:09:25.697Z,8.70
2018-11-14T17:11:53.848Z,7.60
2018-11-14T17:14:22.158Z,8.60
2018-11-14T17:16:50.264Z,8.60
2018-11-14T17:19:18.470Z,8.50
2018-11-14T17:21:46.672Z,8.50
2018-11-14T17:24:14.831Z,8.00
2018-11-14T17:26:43.085Z,8.40
2018-11-14T17:29:11.244Z,8.30
2018-11-14T17:31:39.444Z,8.30
2018-11-14T17:34:07.606Z,8.20
2018-11-14T17:36:35.843Z,8.20
2018-11-14T17:39:06.657Z,8.10
2018-11-14T17:41:34.914Z,8.10
2018-11-14T17:44:03.066Z,8.00
2018-11-14T17:46:31.278Z,7.90
2018-11-14T17:48:59.432Z,7.90
2018-11-14T17:51:27.624Z,7.80
2018-11-14T17:53:55.780Z,7.70
2018-11-14T17:56:23.978Z,7.70
2018-11-14T17:58:52.138Z,7.60
2018-11-14T18:01:20.349Z,7.50
2018-11-14T18:03:48.505Z,7.50
2018-11-14T18:06:16.725Z,7.50
2018-11-14T18:08:44.897Z,7.40
2018-11-14T18:11:13.088Z,7.30
2018-11-14T18:13:41.422Z,7.30
2018-11-14T18:16:09.886Z,7.20
2018-11-14T18:18:39.080Z,7.10
2018-11-14T18:21:07.509Z,7.10
2018-11-14T18:23:35.689Z,7.00
2018-11-14T18:26:03.909Z,6.90
2018-11-14T18:28:32.076Z,6.90
2018-11-14T18:31:00.285Z,6.80
2018-11-14T18:33:28.445Z,6.70
2018-11-14T18:35:56.672Z,6.70
2018-11-14T18:38:24.841Z,6.60
2018-11-14T18:40:53.322Z,6.50
2018-11-14T18:43:21.512Z,6.50
2018-11-14T18:45:49.730Z,6.50
2018-11-14T18:48:17.870Z,6.40
2018-11-14T18:50:46.097Z,6.40
2018-11-14T18:53:14.262Z,6.30
2018-11-14T18:55:42.482Z,6.30
2018-11-14T18:58:10.660Z,6.20
2018-11-14T19:00:38.887Z,6.20
2018-11-14T19:03:07.060Z,6.10
2018-11-14T19:05:35.303Z,6.00
2018-11-14T19:08:04.143Z,6.00
2018-11-14T19:10:34.411Z,5.90
2018-11-14T19:13:03.584Z,5.90
2018-11-14T19:15:34.042Z,5.80
2018-11-14T19:18:02.958Z,5.80
2018-11-14T19:20:33.429Z,5.70
2018-11-14T19:23:05.609Z,5.70
2018-11-14T19:25:36.265Z,5.70
2018-11-14T19:28:06.256Z,5.60
2018-11-14T19:30:37.754Z,5.60
2018-11-14T19:33:07.357Z,5.50
2018-11-14T19:35:36.648Z,5.50
2018-11-14T19:38:06.219Z,5.50
2018-11-14T19:40:36.511Z,5.50
2018-11-14T19:43:07.881Z,5.40
2018-11-14T19:45:37.250Z,5.40
2018-11-14T19:48:05.876Z,5.30
2018-11-14T19:50:34.202Z,5.30
2018-11-14T19:53:02.583Z,5.30
2018-11-14T19:55:31.276Z,5.20
2018-11-14T19:58:00.587Z,5.20
2018-11-14T20:00:30.843Z,5.10
2018-11-14T20:02:59.044Z,5.10
2018-11-14T20:05:27.253Z,5.10
2018-11-14T20:07:55.597Z,5.00
2018-11-14T20:10:27.123Z,4.30
2018-11-14T20:12:55.351Z,5.00
2018-11-14T20:15:24.887Z,4.90
2018-11-14T20:17:53.167Z,4.90
2018-11-14T20:20:22.689Z,4.90
2018-11-14T20:22:50.936Z,4.80
2018-11-14T20:25:19.339Z,4.80
2018-11-14T20:27:47.794Z,4.80
2018-11-14T20:30:19.914Z,4.70
2018-11-14T20:32:48.329Z,4.70
2018-11-14T20:35:20.192Z,4.70
2018-11-14T20:37:49.851Z,4.60
2018-11-14T20:40:20.063Z,4.60
2018-11-14T20:42:49.299Z,4.60
2018-11-14T20:45:19.265Z,4.50
2018-11-14T20:47:47.477Z,4.50
2018-11-14T20:50:17.062Z,4.50
2018-11-14T20:52:46.001Z,4.50
2018-11-14T20:55:14.643Z,4.50
2018-11-14T20:57:44.101Z,4.40
2018-11-14T21:00:14.928Z,4.40
2018-11-14T21:02:43.283Z,4.40
2018-11-14T21:05:12.586Z,4.40
2018-11-14T21:07:41.548Z,4.30
2018-11-14T21:10:11.848Z,4.30
2018-11-14T21:12:40.894Z,4.30
2018-11-14T21:15:11.006Z,4.30
2018-11-14T21:17:39.233Z,4.20
2018-11-14T21:20:08.205Z,4.20
2018-11-14T21:22:36.600Z,4.20
2018-11-14T21:25:05.563Z,4.20
2018-11-14T21:27:33.796Z,4.20
2018-11-14T21:30:02.182Z,4.20
2018-11-14T21:32:30.628Z,4.20
2018-11-14T21:34:58.828Z,4.20
2018-11-14T21:37:27.094Z,4.20
2018-11-14T21:39:55.327Z,4.20
2018-11-14T21:42:24.953Z,4.20
2018-11-14T21:44:53.160Z,4.20
2018-11-14T21:47:26.700Z,4.20
2018-11-14T21:49:54.907Z,4.20
2018-11-14T21:52:23.157Z,4.20
2018-11-14T21:54:51.373Z,4.20
2018-11-14T21:57:19.525Z,4.20
2018-11-14T21:59:47.768Z,4.20
2018-11-14T22:02:15.888Z,4.20
2018-11-14T22:04:44.081Z,4.20
2018-11-14T22:07:12.241Z,4.20
2018-11-14T22:09:40.429Z,4.20
2018-11-14T22:12:08.604Z,4.20
2018-11-14T22:14:36.809Z,4.10
2018-11-14T22:17:05.316Z,4.10
2018-11-14T22:19:33.638Z,4.10
2018-11-14T22:22:01.672Z,4.10
2018-11-14T22:24:29.856Z,4.10
2018-11-14T22:26:58.111Z,4.00
2018-11-14T22:29:26.301Z,4.00
2018-11-14T22:31:54.686Z,4.00
2018-11-14T22:34:22.864Z,4.00
2018-11-14T22:36:51.042Z,4.00
2018-11-14T22:39:19.260Z,3.90
2018-11-14T22:41:47.417Z,3.90
2018-11-14T22:44:15.593Z,3.90
2018-11-14T22:46:43.829Z,3.90
2018-11-14T22:49:12.027Z,3.90
2018-11-14T22:51:40.184Z,3.90
2018-11-14T22:54:08.368Z,3.90
2018-11-14T22:56:36.524Z,3.90
2018-11-14T22:59:04.949Z,3.90
2018-11-14T23:01:33.116Z,3.90
2018-11-14T23:04:01.299Z,3.90
2018-11-14T23:06:29.467Z,3.90
2018-11-14T23:08:57.640Z,3.80
2018-11-14T23:11:25.801Z,3.80
2018-11-14T23:13:54.029Z,3.80
2018-11-14T23:16:22.180Z,3.90
2018-11-14T23:18:50.364Z,3.90
2018-11-14T23:21:18.525Z,3.10
2018-11-14T23:23:46.695Z,3.90
2018-11-14T23:26:14.889Z,3.90
2018-11-14T23:28:43.053Z,3.90
2018-11-14T23:31:11.848Z,3.90
2018-11-14T23:33:40.025Z,3.80
2018-11-14T23:36:08.207Z,3.80
2018-11-14T23:38:36.368Z,3.80
2018-11-14T23:41:04.590Z,3.70
2018-11-14T23:43:32.766Z,3.70
2018-11-14T23:46:00.953Z,3.70
2018-11-14T23:48:29.283Z,3.60
2018-11-14T23:50:58.459Z,4.00
2018-11-14T23:53:26.624Z,3.60
2018-11-14T23:55:54.817Z,3.60
2018-11-14T23:58:22.982Z,3.60
